Terminal Aerodrome Forecast
Issued by NWS Northern Indiana

Home | Current Version | Previous Version | Text Only | Print | Product List | Glossary On
Versions: 1 2 3 4 5 6 7 8 9 10 11 12 13 14 15 16 17
112
FTUS43 KIWX 231730
TAFFWA
TAF
KFWA 231730Z 2318/2418 24011KT P6SM OVC008
     FM232300 27010KT P6SM BKN013
     FM240700 35005KT 6SM BR VCSH OVC010
     FM241200 06007KT 4SM -RA BR OVC008=

USA.gov is the U.S. government's official web portal to all federal, state and local government web resources and services.